Flight Track Log - Related Links

Times and Time Zones

All times are in EDT time to prevent confusion due to time zone crossing. See the SWA2147 flight status page for this flight to view local times or setup timezone preferences in your user account.

Time Position Orientation Groundspeed Altitude Reporting Facility
EDT Latitude Longitude Course Direction KTS MPH feet Rate Location/Type
Wed 06:07:32 PM 33.4333 -112.0333 270° West 159 183 2,300  Level Phoenix TRACON
Wed 06:08:45 PM 33.4333 -112.1167 270° West 230 265 4,300 1,829 Climbing Phoenix TRACON
Wed 06:09:17 PM 33.4364 -112.1458 277° West 229 264 5,500 2,617 Climbing Albuquerque Center
Wed 06:10:19 PM 33.4928 -112.1828 331° Northwest 255 293 8,400 2,516 Climbing Albuquerque Center
Wed 06:11:21 PM 33.5575 -112.1364 31° Northeast 294 338 10,700 2,081 Climbing Albuquerque Center
Wed 06:12:23 PM 33.5744 -112.0228 80° East 351 404 12,700 2,226 Climbing Albuquerque Center
Wed 06:13:25 PM 33.5933 -111.8997 80° East 376 433 15,300 2,371 Climbing Albuquerque Center
Wed 06:14:27 PM 33.6128 -111.7731 80° East 389 448 17,600 2,419 Climbing Albuquerque Center
Wed 06:15:29 PM 33.6367 -111.6153 80° East 405 466 20,300 2,323 Climbing Albuquerque Center
Wed 06:16:31 PM 33.6572 -111.4803 80° East 415 478 22,400 1,839 Climbing Albuquerque Center
Wed 06:17:33 PM 33.6775 -111.3378 80° East 433 498 24,100 1,548 Climbing Albuquerque Center
Wed 06:18:35 PM 33.7122 -111.1978 73° East 442 509 25,600 1,403 Climbing Albuquerque Center
Wed 06:19:37 PM 33.7617 -111.0606 67° East 449 517 27,000 677 Climbing Albuquerque Center
Wed 06:20:39 PM 33.8222 -110.8906 67° East 461 531 27,000  Level Albuquerque Center
Wed 06:21:41 PM 33.8722 -110.7494 67° East 462 532 27,000 677 Level Albuquerque Center
Wed 06:22:43 PM 33.9219 -110.6064 67° East 464 534 28,400 1,355 Climbing Albuquerque Center
Wed 06:23:45 PM 33.9728 -110.4619 67° East 467 537 29,800 1,452 Climbing Albuquerque Center
Wed 06:24:47 PM 34.0275 -110.3072 67° East 477 549 31,400 1,258 Climbing Albuquerque Center
Wed 06:25:49 PM 34.0772 -110.1608 68° East 476 548 32,400 1,065 Climbing Albuquerque Center
Wed 06:26:51 PM 34.1375 -109.9869 67° East 480 552 33,600 1,113 Climbing Albuquerque Center
Wed 06:27:53 PM 34.1869 -109.8461 67° East 478 550 34,700 871 Climbing Albuquerque Center
Wed 06:28:55 PM 34.2428 -109.6786 68° East 480 552 35,400 677 Climbing Albuquerque Center
Wed 06:29:57 PM 34.2925 -109.5342 67° East 484 557 36,100 774 Climbing Albuquerque Center
Wed 06:30:59 PM 34.3500 -109.3642 68° East 487 560 37,000 435 Climbing Albuquerque Center
Wed 06:32:01 PM 34.3967 -109.2219 68° East 483 556 37,000  Level Albuquerque Center
Wed 06:33:03 PM 34.4364 -109.0761 72° East 478 550 37,000  Level Albuquerque Center
Wed 06:34:05 PM 34.4836 -108.9028 72° East 482 555 37,000  Level Albuquerque Center
Wed 06:35:07 PM 34.5247 -108.7558 71° East 483 556 37,000  Level Albuquerque Center
Wed 06:36:08 PM 34.5728 -108.5831 71° East 484 557 37,000  Level Albuquerque Center
Wed 06:37:10 PM 34.6164 -108.4253 71° East 484 557 37,000  Level Albuquerque Center
Wed 06:38:12 PM 34.6594 -108.2692 71° East 487 560 37,000  Level Albuquerque Center
Wed 06:39:14 PM 34.7022 -108.1131 72° East 487 560 37,000  Level Albuquerque Center
Wed 06:40:16 PM 34.7444 -107.9564 72° East 488 562 37,000  Level Albuquerque Center
Wed 06:41:18 PM 34.7869 -107.7994 72° East 489 563 37,000  Level Albuquerque Center
Wed 06:42:20 PM 34.8281 -107.6419 72° East 489 563 37,000  Level Albuquerque Center
Wed 06:43:21 PM 34.8789 -107.4519 72° East 491 565 37,000  Level Albuquerque Center
Wed 06:44:23 PM 34.9206 -107.2933 72° East 494 568 37,000  Level Albuquerque Center
Wed 06:45:25 PM 34.9642 -107.1289 72° East 499 574 37,000  Level Albuquerque Center
Wed 06:46:27 PM 35.0036 -106.9769 72° East 494 568 37,000  Level Albuquerque Center
Wed 06:47:28 PM 35.0492 -106.8011 72° East 488 562 37,000  Level Albuquerque Center
Wed 06:48:30 PM 35.1042 -106.6564 65° Northeast 491 565 37,000  Level Albuquerque Center
Wed 06:49:32 PM 35.1653 -106.4936 65° Northeast 499 574 37,000  Level Albuquerque Center
Wed 06:50:34 PM 35.2217 -106.3400 66° East 497 572 37,000  Level Albuquerque Center
Wed 06:51:35 PM 35.2856 -106.1628 66° East 489 563 37,000  Level Albuquerque Center
Wed 06:52:37 PM 35.3417 -106.0089 66° East 491 565 37,000  Level Albuquerque Center
Wed 06:53:39 PM 35.4014 -105.8514 65° Northeast 504 580 37,000  Level Albuquerque Center
Wed 06:54:40 PM 35.4589 -105.6947 66° East 502 578 37,000  Level Albuquerque Center
Wed 06:55:42 PM 35.5164 -105.5367 66° East 502 578 37,000  Level Albuquerque Center
Wed 06:56:44 PM 35.5697 -105.3806 67° East 495 570 37,000  Level Albuquerque Center
Wed 06:57:45 PM 35.6289 -105.2203 66° East 503 579 37,000  Level Albuquerque Center
Wed 06:58:47 PM 35.6942 -105.0658 62° Northeast 506 582 37,000  Level Albuquerque Center
Wed 06:59:49 PM 35.7728 -104.9208 56° Northeast 505 581 37,000  Level Albuquerque Center
Wed 07:00:50 PM 35.8517 -104.7775 56° Northeast 502 578 37,000  Level Albuquerque Center
Wed 07:01:52 PM 35.9303 -104.6342 56° Northeast 500 575 37,000  Level Albuquerque Center
Wed 07:02:54 PM 36.0067 -104.4900 57° Northeast 497 572 37,000  Level Albuquerque Center
Wed 07:03:55 PM 36.0944 -104.3247 57° Northeast 490 564 37,000  Level Albuquerque Center
Wed 07:04:57 PM 36.1689 -104.1867 56° Northeast 482 555 37,000  Level Albuquerque Center
Wed 07:05:59 PM 36.2444 -104.0447 57° Northeast 485 558 37,000  Level Albuquerque Center
Wed 07:07:00 PM 36.3208 -103.9008 57° Northeast 491 565 37,000  Level Albuquerque Center
Wed 07:08:02 PM 36.3978 -103.7547 57° Northeast 498 573 37,000  Level Albuquerque Center
Wed 07:09:04 PM 36.4747 -103.6078 57° Northeast 501 577 37,000  Level Albuquerque Center
Wed 07:10:05 PM 36.5514 -103.4617 57° Northeast 500 575 37,000  Level Albuquerque Center
Wed 07:11:07 PM 36.6272 -103.3128 58° Northeast 504 580 37,000  Level Albuquerque Center
Wed 07:12:08 PM 36.7036 -103.1650 57° Northeast 503 579 37,000  Level Albuquerque Center
Wed 07:13:10 PM 36.7803 -103.0161 57° Northeast 506 582 37,000  Level Albuquerque Center
Wed 07:14:12 PM 36.8561 -102.8678 57° Northeast 504 580 37,000  Level Albuquerque Center
Wed 07:15:13 PM 36.9422 -102.6981 58° Northeast 505 581 37,000  Level Albuquerque Center
Wed 07:16:15 PM 37.0144 -102.5586 57° Northeast 502 578 37,000  Level Albuquerque Center
Wed 07:17:16 PM 37.0978 -102.3942 58° Northeast 501 577 37,000  Level Albuquerque Center
Wed 07:18:18 PM 37.1686 -102.2514 58° Northeast 503 579 37,000  Level Albuquerque Center
Wed 07:19:20 PM 37.2397 -102.1094 58° Northeast 502 578 37,000  Level Albuquerque Center
Wed 07:20:21 PM 37.3244 -101.9419 58° Northeast 507 583 37,000  Level Albuquerque Center
Wed 07:21:31 PM 37.4075 -101.7719 58° Northeast 509 586 37,000  Level Kansas City Center
Wed 07:22:33 PM 37.4919 -101.6036 58° Northeast 510 587 37,000  Level Kansas City Center
Wed 07:23:35 PM 37.5631 -101.4569 59° Northeast 511 588 37,000  Level Kansas City Center
Wed 07:24:37 PM 37.6478 -101.2853 58° Northeast 513 590 37,000  Level Kansas City Center
Wed 07:25:39 PM 37.7167 -101.1433 58° Northeast 515 593 37,000  Level Kansas City Center
Wed 07:26:41 PM 37.7919 -100.9878 58° Northeast 511 588 37,000  Level Kansas City Center
Wed 07:27:43 PM 37.8769 -100.8128 58° Northeast 512 589 37,000  Level Kansas City Center
Wed 07:28:45 PM 37.9408 -100.6614 62° Northeast 507 583 37,000  Level Kansas City Center
Wed 07:29:47 PM 37.9939 -100.5044 67° East 503 579 37,000  Level Kansas City Center
Wed 07:30:49 PM 38.0553 -100.3208 67° East 504 580 37,000  Level Kansas City Center
Wed 07:31:51 PM 38.1067 -100.1636 67° East 503 579 37,000  Level Kansas City Center
Wed 07:32:53 PM 38.1681 -99.9817 67° East 503 579 37,000  Level Kansas City Center
Wed 07:33:55 PM 38.2197 -99.8242 67° East 503 579 37,000  Level Kansas City Center
Wed 07:34:57 PM 38.2808 -99.6389 67° East 507 583 37,000  Level Kansas City Center
Wed 07:35:59 PM 38.3328 -99.4847 67° East 506 582 37,000  Level Kansas City Center
Wed 07:37:01 PM 38.3869 -99.3183 67° East 507 583 37,000  Level Kansas City Center
Wed 07:38:02 PM 38.4411 -99.1522 67° East 508 585 37,000  Level Kansas City Center
Wed 07:39:04 PM 38.4953 -98.9869 67° East 506 582 37,000  Level Kansas City Center
Wed 07:40:06 PM 38.5483 -98.8208 68° East 504 580 37,000  Level Kansas City Center
Wed 07:41:08 PM 38.6000 -98.6211 72° East 491 565 37,000  Level Kansas City Center
Wed 07:42:10 PM 38.6261 -98.4500 79° East 488 562 37,000  Level Kansas City Center
Wed 07:43:12 PM 38.6469 -98.2828 81° East 478 550 37,000  Level Kansas City Center
Wed 07:44:13 PM 38.6619 -98.1133 83° East 476 548 37,000  Level Kansas City Center
Wed 07:45:15 PM 38.6767 -97.9461 84° East 472 543 37,000  Level Kansas City Center
Wed 07:46:17 PM 38.6886 -97.7789 85° East 470 541 37,000  Level Kansas City Center
Wed 07:47:19 PM 38.7003 -97.6111 85° East 471 542 37,000  Level Kansas City Center
Wed 07:48:21 PM 38.7117 -97.4442 85° East 470 541 37,000  Level Kansas City Center
Wed 07:49:22 PM 38.7247 -97.2447 85° East 468 539 37,000  Level Kansas City Center
Wed 07:50:24 PM 38.7675 -97.0853 71° East 474 545 37,000  Level Kansas City Center
Wed 07:51:26 PM 38.8206 -96.9269 67° East 481 554 37,000  Level Kansas City Center
Wed 07:52:28 PM 38.8708 -96.7694 68° East 478 550 37,000  Level Kansas City Center
Wed 07:53:29 PM 38.9250 -96.6119 66° East 481 554 37,000  Level Kansas City Center
Wed 07:54:31 PM 38.9814 -96.4319 68° East 480 552 37,000  Level Kansas City Center
Wed 07:55:33 PM 39.0286 -96.2794 68° East 480 552 37,000  Level Kansas City Center
Wed 07:56:35 PM 39.0858 -96.1003 68° East 483 556 37,000  Level Kansas City Center
Wed 07:57:37 PM 39.1342 -95.9478 68° East 482 555 37,000  Level Kansas City Center
Wed 07:58:38 PM 39.1831 -95.7936 68° East 483 556 37,000  Level Kansas City Center
Wed 07:59:40 PM 39.2397 -95.6139 68° East 482 555 37,000  Level Kansas City Center
Wed 08:00:42 PM 39.2928 -95.4439 68° East 479 551 37,000  Level Kansas City Center
Wed 08:01:44 PM 39.3417 -95.2872 68° East 472 543 37,000  Level Kansas City Center
Wed 08:02:45 PM 39.3942 -95.1175 68° East 471 542 37,000  Level Kansas City Center
Wed 08:03:47 PM 39.4372 -94.9769 68° East 467 537 37,000  Level Kansas City Center
Wed 08:04:49 PM 39.4911 -94.8025 68° East 466 536 37,000  Level Kansas City Center
Wed 08:05:51 PM 39.5361 -94.6519 69° East 466 536 37,000  Level Kansas City Center
Wed 08:06:52 PM 39.5892 -94.4783 68° East 465 535 37,000  Level Kansas City Center
Wed 08:07:54 PM 39.6333 -94.3283 69° East 465 535 37,000  Level Kansas City Center
Wed 08:08:56 PM 39.6778 -94.1797 69° East 463 533 37,000  Level Kansas City Center
Wed 08:09:57 PM 39.7292 -94.0056 69° East 464 534 37,000  Level Kansas City Center
Wed 08:10:59 PM 39.7739 -93.8561 69° East 462 532 37,000  Level Kansas City Center
Wed 08:12:01 PM 39.8231 -93.6817 70° East 468 539 37,000  Level Kansas City Center
Wed 08:13:02 PM 39.8694 -93.5281 68° East 463 533 37,000  Level Kansas City Center
Wed 08:14:04 PM 39.9150 -93.3725 69° East 464 534 37,000  Level Kansas City Center
Wed 08:15:06 PM 39.9575 -93.2186 70° East 459 528 37,000  Level Kansas City Center
Wed 08:16:08 PM 40.0008 -93.0639 70° East 459 528 37,000  Level Kansas City Center
Wed 08:17:09 PM 40.0528 -92.8817 70° East 454 522 37,000  Level Kansas City Center
Wed 08:18:11 PM 40.0931 -92.7361 70° East 454 522 37,000  Level Kansas City Center
Wed 08:19:42 PM 40.1564 -92.4828 72° East 454 522 37,000  Level Chicago Center
Wed 08:20:14 PM 40.1728 -92.4078 74° East 457 526 37,000  Level Kansas City Center
Wed 08:21:16 PM 40.2094 -92.2306 75° East 461 531 37,000  Level Kansas City Center
Wed 08:22:18 PM 40.2417 -92.0722 75° East 460 529 37,000  Level Kansas City Center
Wed 08:23:19 PM 40.2728 -91.9122 76° East 459 528 37,000 -422 Level Kansas City Center
Wed 08:25:23 PM 40.3361 -91.5919 75° East 460 529 35,700 -1,232 Descending Kansas City Center
Wed 08:26:24 PM 40.3753 -91.4039 75° East 452 520 33,200 -2,106 Descending Kansas City Center
Wed 08:26:57 PM 40.3881 -91.3422 75° East 447 514 32,400 -1,389 Descending Chicago Center
Wed 08:27:59 PM 40.4194 -91.1803 76° East 434 499 31,000 -677 Descending Chicago Center
Wed 08:29:01 PM 40.4492 -91.0275 76° East 432 497 31,000  Level Chicago Center
Wed 08:30:03 PM 40.4786 -90.8733 76° East 435 501 31,000 -194 Level Chicago Center
Wed 08:31:05 PM 40.5144 -90.6881 76° East 435 501 30,600 -677 Descending Chicago Center
Wed 08:32:07 PM 40.5419 -90.5378 76° East 426 490 29,600 -968 Descending Chicago Center
Wed 08:33:09 PM 40.5697 -90.3931 76° East 414 476 28,600 -968 Descending Chicago Center
Wed 08:34:11 PM 40.5964 -90.2511 76° East 404 465 27,600 -871 Descending Chicago Center
Wed 08:35:13 PM 40.6181 -90.1061 79° East 404 465 26,800 -871 Descending Chicago Center
Wed 08:36:15 PM 40.6561 -89.9178 75° East 442 509 25,800 -1,016 Descending Chicago Center
Wed 08:37:17 PM 40.6878 -89.7622 75° East 444 511 24,700 -1,645 Descending Chicago Center
Wed 08:38:19 PM 40.7519 -89.6261 58° Northeast 437 503 22,400 -2,177 Descending Chicago Center
Wed 08:39:21 PM 40.8050 -89.5031 60° Northeast 420 483 20,200 -2,304 Descending Chicago Center
Wed 08:40:24 PM 40.8722 -89.3481 60° Northeast 404 465 17,600 -1,872 Descending Chicago Center
Wed 08:41:26 PM 40.9258 -89.2211 61° Northeast 397 457 16,300 -1,113 Descending Chicago Center
Wed 08:42:28 PM 40.9794 -89.0978 60° Northeast 390 449 15,300 -1,016 Descending Chicago Center
Wed 08:43:30 PM 41.0344 -88.9700 60° Northeast 384 442 14,200 -1,597 Descending Chicago Center
Wed 08:44:32 PM 41.1097 -88.8739 44° Northeast 387 445 12,000 -1,790 Descending Chicago Center
Wed 08:45:34 PM 41.1819 -88.7814 44° Northeast 369 425 10,500 -968 Descending Chicago Center
Wed 08:46:36 PM 41.2461 -88.6986 44° Northeast 325 374 10,000 -1,016 Descending Chicago Center
Wed 08:47:38 PM 41.3181 -88.6092 43° Northeast 299 344 8,400 -1,452 Descending Chicago Center
Wed 08:48:40 PM 41.3761 -88.5367 43° Northeast 292 336 7,000 -1,210 Descending Chicago Center
Wed 08:49:42 PM 41.4092 -88.4472 64° Northeast 279 321 5,900 -532 Descending Chicago Center
Wed 08:50:44 PM 41.4286 -88.3531 75° East 267 307 5,900 -339 Level Chicago Center
Wed 08:51:46 PM 41.4483 -88.2589 74° East 265 305 5,200 -484 Descending Chicago Center
Wed 08:52:48 PM 41.4697 -88.1656 73° East 265 305 4,900 -144 Descending Chicago Center
Wed 08:53:51 PM 41.5100 -88.0603 63° Northeast 264 304 4,900  Level Chicago Center
Wed 08:54:53 PM 41.5419 -87.9722 64° Northeast 263 303 4,900  Level Chicago Center
Wed 08:55:55 PM 41.5744 -87.8847 64° Northeast 262 302 4,900  Level Chicago Center
Wed 08:56:57 PM 41.6072 -87.7978 63° Northeast 263 303 4,900 -97 Level Chicago Center
Wed 08:57:59 PM 41.6150 -87.7228 82° East 225 259 4,700 -581 Descending Chicago Center
Wed 08:59:01 PM 41.6261 -87.6531 78° East 203 234 3,700 -1,039 Descending Chicago Center
Wed 09:00:06 PM 41.6819 -87.6167 26° Northeast 198 228 2,500 -766 Descending Chicago Center
Wed 09:00:35 PM 41.7000 -87.6500 306° West 195 224 2,500 -506 Level Chicago TRACON
Wed 09:01:29 PM 41.7333 -87.6833 323° Northwest 200 230 1,800 -400 Descending Chicago TRACON
Wed 09:02:35 PM 41.8000 -87.6833 360° North 185 213 1,700 -333 Descending Chicago TRACON
Wed 09:03:35 PM 41.8000 -87.7167 270° West 150 173 1,100 -600 Descending Chicago TRACON

Login

Don't have an account? Register now (free) for customized features, flight alerts, and more!